^^
Grace C. Lehan Memorial Weather Station Historical Data
Daily Summary for April 14, 2021 Units:  Metric    English   Both
Daily Weekly Monthly Yearly
  High: Low: Average:
Temperature: 31.9 °C 22.3 °C 26.7 °C
Dew Point: 25.7 °C 14.5 °C 21.2 °C
Humidity: 93.7% 46.7% 73%
Wind Speed: 9.2km/h 0km/h 1.4km/h
Wind Gust: 27.4km/h - -
Wind- - WNW
Pressure: 1019.5 hPa 1013.8 hPa -
Precipitation: 5.84 mm    
 
 
Tabular Data for April 14, 2021
Time Temperature Dew Point Pressure Wind Wind Speed Wind Gust Humidity Rainfall Rate (Hourly) solar
00:00 27.6 °C 23.7 °C 1014.8 hPa Calm     79% 0 mm 0 W/m2
00:09 27.6 °C 23.4 °C 1014.4 hPa Calm     78% 0 mm 0 W/m2
00:14 27.6 °C 23.6 °C 1014.8 hPa Calm     78.9% 0 mm 0 W/m2
00:19 27.5 °C 23.6 °C 1014.4 hPa Calm     79% 0 mm 0 W/m2
00:24 27.5 °C 23.5 °C 1014.4 hPa Calm     79% 0 mm 0 W/m2
00:29 27.4 °C 23.4 °C 1014.4 hPa Calm     79% 0 mm 0 W/m2
00:34 27.3 °C 23.4 °C 1014.4 hPa Calm     79.3% 0 mm 0 W/m2
00:39 27.3 °C 23.5 °C 1014.1 hPa Calm     80% 0 mm 0 W/m2
00:44 27.2 °C 23.4 °C 1014.1 hPa Calm     80% 0 mm 0 W/m2
00:49 27.1 °C 23.3 °C 1014.1 hPa Calm     80% 0 mm 0 W/m2
00:54 27 °C 23.3 °C 1014.1 hPa Calm     80.3% 0 mm 0 W/m2
00:59 26.9 °C 23.4 °C 1014.1 hPa Calm     81% 0 mm 0 W/m2
01:04 26.8 °C 23.3 °C 1014.1 hPa Calm     81% 0 mm 0 W/m2
01:09 26.8 °C 23.2 °C 1014.1 hPa Calm     81% 0 mm 0 W/m2
01:14 26.7 °C 23.3 °C 1014.1 hPa Calm     81.4% 0 mm 0 W/m2
01:19 26.7 °C 23.3 °C 1014.1 hPa Calm     82% 0 mm 0 W/m2
01:24 26.6 °C 23.3 °C 1014.1 hPa Calm     82% 0 mm 0 W/m2
01:29 26.5 °C 23.3 °C 1013.8 hPa Calm     82.7% 0 mm 0 W/m2
01:34 26.5 °C 23.3 °C 1013.8 hPa Calm     83% 0 mm 0 W/m2
01:39 26.4 °C 23.3 °C 1014.1 hPa Calm     83% 0 mm 0 W/m2
01:44 26.4 °C 23.3 °C 1013.8 hPa Calm     83% 0 mm 0 W/m2
01:49 26.3 °C 23.2 °C 1013.8 hPa Calm     83% 0 mm 0 W/m2
01:54 26.3 °C 23.2 °C 1013.8 hPa Calm     83% 0 mm 0 W/m2
01:59 26.2 °C 23.1 °C 1013.8 hPa Calm     83% 0 mm 0 W/m2
02:04 26.2 °C 23.2 °C 1013.8 hPa Calm     83.5% 0 mm 0 W/m2
02:09 26.1 °C 23.2 °C 1013.8 hPa Calm     84% 0 mm 0 W/m2
02:14 26.1 °C 23.2 °C 1013.8 hPa Calm     84% 0 mm 0 W/m2
02:19 26 °C 23.1 °C 1013.8 hPa Calm     84% 0 mm 0 W/m2
02:24 25.9 °C 23.1 °C 1013.8 hPa Calm     84% 0 mm 0 W/m2
02:29 25.9 °C 23.1 °C 1013.8 hPa Calm     84.3% 0 mm 0 W/m2
02:34 25.8 °C 23.1 °C 1013.8 hPa Calm     85% 0 mm 0 W/m2
02:39 25.8 °C 23.1 °C 1013.8 hPa Calm     85% 0 mm 0 W/m2
02:44 25.8 °C 23.1 °C 1013.8 hPa Calm     85% 0 mm 0 W/m2
02:49 25.7 °C 23.1 °C 1013.8 hPa Calm     85.2% 0 mm 0 W/m2
02:54 25.7 °C 23.2 °C 1013.8 hPa Calm     86% 0 mm 0 W/m2
02:59 25.7 °C 23.1 °C 1013.8 hPa Calm     86% 0 mm 0 W/m2
03:04 25.6 °C 23.1 °C 1013.8 hPa Calm     86% 0 mm 0 W/m2
03:09 25.6 °C 23.1 °C 1013.8 hPa Calm     86% 0 mm 0 W/m2
03:14 25.5 °C 23 °C 1013.8 hPa Calm     86% 0 mm 0 W/m2
03:19 25.4 °C 22.9 °C 1013.8 hPa Calm     86% 0 mm 0 W/m2
03:24 25.4 °C 22.9 °C 1013.8 hPa Calm     86.3% 0 mm 0 W/m2
03:29 25.3 °C 23.1 °C 1013.8 hPa Calm     87% 0 mm 0 W/m2
03:34 25.3 °C 23 °C 1013.8 hPa Calm     87% 0 mm 0 W/m2
03:39 25.3 °C 22.9 °C 1014.1 hPa Calm     87% 0 mm 0 W/m2
03:44 25.2 °C 22.9 °C 1014.1 hPa Calm     87% 0 mm 0 W/m2
03:49 25.2 °C 22.8 °C 1014.1 hPa Calm     87% 0 mm 0 W/m2
03:54 25.1 °C 22.8 °C 1014.1 hPa Calm     87% 0 mm 0 W/m2
03:59 25.1 °C 22.8 °C 1014.1 hPa Calm     87.4% 0 mm 0 W/m2
04:00 25.1 °C 22.9 °C 1014.1 hPa Calm     88% 0 mm 0 W/m2
04:09 25 °C 22.9 °C 1014.1 hPa Calm     88% 0 mm 0 W/m2
04:14 25 °C 22.9 °C 1014.1 hPa Calm     88% 0 mm 0 W/m2
04:19 24.9 °C 22.8 °C 1014.1 hPa Calm     88% 0 mm 0 W/m2
04:24 24.9 °C 22.8 °C 1014.1 hPa Calm     88% 0 mm 0 W/m2
04:29 24.9 °C 22.8 °C 1014.1 hPa Calm     88% 0 mm 0 W/m2
04:34 24.9 °C 22.8 °C 1014.1 hPa Calm     88% 0 mm 0 W/m2
04:39 24.9 °C 22.8 °C 1014.1 hPa Calm     88% 0 mm 0 W/m2
04:44 24.9 °C 22.8 °C 1014.1 hPa Calm     88% 0 mm 0 W/m2
04:49 24.9 °C 22.8 °C 1014.1 hPa Calm     88% 0 mm 0 W/m2
04:54 24.9 °C 22.9 °C 1014.1 hPa Calm     88.8% 0 mm 0 W/m2
04:59 24.9 °C 22.9 °C 1014.4 hPa Calm     89% 0 mm 0 W/m2
05:04 24.9 °C 22.9 °C 1014.4 hPa Calm     89% 0 mm 0 W/m2
05:09 24.9 °C 22.9 °C 1014.4 hPa Calm     89% 0 mm 0 W/m2
05:14 24.8 °C 22.9 °C 1014.4 hPa Calm     89% 0 mm 0 W/m2
05:19 24.8 °C 22.9 °C 1014.4 hPa Calm     89% 0 mm 0 W/m2
05:24 24.8 °C 22.9 °C 1014.4 hPa Calm     89% 0 mm 0 W/m2
05:29 24.8 °C 22.8 °C 1014.4 hPa Calm     89% 0 mm 0 W/m2
05:34 24.7 °C 22.8 °C 1014.4 hPa Calm     89% 0 mm 0 W/m2
05:37 24.7 °C 22.8 °C 1014.4 hPa Calm     89% 0 mm 0 W/m2
06:00 24.6 °C 22.6 °C 1014.8 hPa Calm     89% 0 mm 0 W/m2
06:30 24.3 °C 22.4 °C 1014.8 hPa Calm     89% 0 mm 6 W/m2
07:00 24.9 °C 22.8 °C 1014.8 hPa Calm     88% 0 mm 80 W/m2
07:30 28.1 °C 23.7 °C 1014.8 hPa Calm     77% 0 mm 164 W/m2
08:04 28.9 °C 22.9 °C 1015.1 hPa Calm     70.2% 0 mm 130 W/m2
08:09 28.9 °C 23.1 °C 1015.1 hPa Calm     71% 0 mm 144 W/m2
08:14 28.8 °C 23.1 °C 1015.1 hPa Calm   3.2 km/h 71.1% 0 mm 144 W/m2
08:19 28.7 °C 22.8 °C 1015.5 hPa Calm   3.2 km/h 70.5% 0 mm 118 W/m2
08:24 28.5 °C 22.6 °C 1015.5 hPa West 1 km/h 8 km/h 70.5% 0 mm 86 W/m2
08:29 28.3 °C 22.6 °C 1015.5 hPa WNW 0.3 km/h 8 km/h 71% 0 mm 186 W/m2
08:34 28.2 °C 22.5 °C 1015.5 hPa Calm   8 km/h 71.2% 0 mm 183 W/m2
08:39 28.2 °C 22.7 °C 1015.5 hPa WNW 0.2 km/h 3.2 km/h 72.1% 0 mm 480 W/m2
08:44 28.3 °C 22.7 °C 1015.5 hPa Calm   3.2 km/h 71.4% 0 mm 497 W/m2
08:49 28.6 °C 23.2 °C 1015.5 hPa Calm   3.2 km/h 72.7% 0 mm 497 W/m2
08:54 28.7 °C 22.7 °C 1015.5 hPa Calm   3.2 km/h 70% 0 mm 111 W/m2
08:59 28.7 °C 22.8 °C 1015.5 hPa Calm   3.2 km/h 70.6% 0 mm 98 W/m2
09:04 28.6 °C 22.9 °C 1015.5 hPa Calm   3.2 km/h 71.5% 0 mm 130 W/m2
09:09 28.6 °C 23 °C 1015.5 hPa Calm   1.6 km/h 71.9% 0 mm 130 W/m2
09:14 28.4 °C 22.9 °C 1015.8 hPa Calm   3.2 km/h 72% 0 mm 69 W/m2
09:19 28.4 °C 23.3 °C 1016.1 hPa WNW 0.5 km/h 4.8 km/h 74.3% 1.02 mm 39 W/m2
09:24 28.2 °C 23.9 °C 1016.5 hPa Calm   4.8 km/h 77.5% 1.02 mm 39 W/m2
09:29 27.8 °C 23.8 °C 1016.5 hPa WNW 0.3 km/h 4.8 km/h 78.8% 1.27 mm 32 W/m2
09:34 27.3 °C 23.6 °C 1016.5 hPa WSW 0.5 km/h 8 km/h 79.9% 1.78 mm 21 W/m2
09:39 26.9 °C 23.5 °C 1016.5 hPa Calm   8 km/h 81.6% 2.29 mm 18 W/m2
09:44 26.5 °C 23.4 °C 1016.5 hPa Calm   8 km/h 83% 2.79 mm 16 W/m2
09:49 26.1 °C 23.3 °C 1016.5 hPa Calm   8 km/h 84.6% 3.3 mm 18 W/m2
09:54 25.8 °C 23.2 °C 1016.5 hPa Calm   8 km/h 85.5% 3.81 mm 26 W/m2
09:59 25.6 °C 23.2 °C 1016.5 hPa Calm   8 km/h 86.3% 4.06 mm 51 W/m2
10:04 25.4 °C 23.2 °C 1016.5 hPa Calm   8 km/h 87.6% 4.06 mm 70 W/m2
10:09 25.2 °C 23.2 °C 1016.5 hPa Calm   1.6 km/h 88.8% 4.06 mm 74 W/m2
10:14 25.2 °C 23.4 °C 1016.8 hPa Calm   1.6 km/h 89.9% 4.32 mm 63 W/m2
10:19 25.1 °C 23.3 °C 1016.8 hPa Calm   1.6 km/h 90% 4.32 mm 49 W/m2
10:24 25 °C 23.4 °C 1016.8 hPa Calm   1.6 km/h 90.9% 4.57 mm 46 W/m2
10:29 24.8 °C 23.3 °C 1016.8 hPa Calm   1.6 km/h 90.8% 4.83 mm 42 W/m2
10:34 24.7 °C 23.2 °C 1016.8 hPa Calm   1.6 km/h 91% 4.83 mm 32 W/m2
10:39 24.6 °C 23.1 °C 1016.5 hPa Calm     91% 4.06 mm 25 W/m2
10:44 24.5 °C 22.9 °C 1016.5 hPa Calm     91% 4.57 mm 33 W/m2
10:49 24.4 °C 23 °C 1016.1 hPa Calm     91.9% 4.57 mm 49 W/m2
10:54 24.3 °C 22.9 °C 1016.1 hPa Calm     92% 4.57 mm 67 W/m2
10:59 24.3 °C 23 °C 1016.1 hPa Calm     92.2% 4.57 mm 130 W/m2
11:04 24.4 °C 23.2 °C 1016.1 hPa Calm     93% 4.57 mm 181 W/m2
11:09 24.5 °C 23.3 °C 1016.1 hPa WSW 0.2 km/h 1.6 km/h 93% 1.78 mm 178 W/m2
11:14 24.6 °C 23.4 °C 1016.1 hPa Calm   1.6 km/h 93% 1.78 mm 144 W/m2
11:19 24.7 °C 23.6 °C 1016.1 hPa Calm   1.6 km/h 93.5% 1.78 mm 174 W/m2
11:24 24.7 °C 23.5 °C 1016.1 hPa Calm   1.6 km/h 93% 1.78 mm 338 W/m2
11:29 24.8 °C 23.8 °C 1016.1 hPa Calm   1.6 km/h 93.7% 1.78 mm 274 W/m2
11:34 25 °C 23.8 °C 1016.1 hPa WSW 0.2 km/h 3.2 km/h 93.3% 1.78 mm 250 W/m2
11:39 24.9 °C 23.7 °C 1016.1 hPa Calm   3.2 km/h 92.8% 1.02 mm 183 W/m2
11:44 25.1 °C 23.8 °C 1016.1 hPa West 0.2 km/h 3.2 km/h 93% 1.02 mm 877 W/m2
11:49 25.4 °C 24.3 °C 1016.1 hPa West 1.1 km/h 4.8 km/h 93.5% 1.02 mm 868 W/m2
11:54 25.8 °C 24.6 °C 1016.1 hPa Calm   4.8 km/h 93% 1.02 mm 923 W/m2
11:59 26.3 °C 25 °C 1016.1 hPa West 1.4 km/h 9.7 km/h 92.4% 1.02 mm 958 W/m2
12:09 26.8 °C 24.7 °C 1016.1 hPa West 1.4 km/h 6.4 km/h 88% 1.02 mm 524 W/m2
12:14 27.2 °C 25.1 °C 1016.1 hPa Calm   6.4 km/h 88.4% 1.02 mm 882 W/m2
12:19 27.4 °C 24.9 °C 1016.1 hPa WSW 1.3 km/h 8 km/h 86.2% 1.02 mm 877 W/m2
12:24 27.7 °C 24.9 °C 1016.1 hPa WSW 2.3 km/h 12.9 km/h 84.8% 1.02 mm 861 W/m2
12:29 27.9 °C 24.6 °C 1016.1 hPa WSW 1.8 km/h 12.9 km/h 82.3% 1.02 mm 865 W/m2
12:34 28.2 °C 24.6 °C 1016.1 hPa WNW 1 km/h 12.9 km/h 81.1% 1.02 mm 874 W/m2
12:39 28.6 °C 25.2 °C 1016.1 hPa NW 1.3 km/h 6.4 km/h 82.2% 0 mm 872 W/m2
12:44 28.9 °C 25.2 °C 1016.1 hPa NW 1.3 km/h 6.4 km/h 80.3% 0 mm 879 W/m2
12:49 29.3 °C 25.3 °C 1015.8 hPa WNW 1 km/h 6.4 km/h 79.5% 0 mm 893 W/m2
12:54 29.6 °C 25.2 °C 1015.8 hPa WNW 2.3 km/h 11.3 km/h 77.8% 0 mm 909 W/m2
12:59 29.8 °C 25.7 °C 1015.8 hPa NW 0.8 km/h 11.3 km/h 78.4% 0 mm 895 W/m2
13:04 30.1 °C 25.1 °C 1015.8 hPa WNW 7.1 km/h 12.9 km/h 74.9% 0 mm 949 W/m2
13:09 30.1 °C 25 °C 1015.8 hPa WSW 1.6 km/h 12.9 km/h 74.1% 0 mm 949 W/m2
13:14 30.3 °C 25 °C 1015.8 hPa West 0.2 km/h 12.9 km/h 73.5% 0 mm 707 W/m2
13:19 30.4 °C 25.4 °C 1015.5 hPa NW 1.9 km/h 12.9 km/h 74.6% 0 mm 1111 W/m2
13:24 30.7 °C 25.3 °C 1015.5 hPa WNW 5.3 km/h 16.1 km/h 73% 0 mm 1111 W/m2
13:29 30.7 °C 24.5 °C 1015.5 hPa WNW 5 km/h 16.1 km/h 69.7% 0 mm 264 W/m2
13:34 30.6 °C 24.2 °C 1015.5 hPa NW 5 km/h 16.1 km/h 68.8% 0 mm 432 W/m2
13:39 30.4 °C 23.9 °C 1015.5 hPa NW 3.5 km/h 14.5 km/h 68.3% 0 mm 559 W/m2
13:44 30.4 °C 24.2 °C 1015.5 hPa WNW 4.3 km/h 17.7 km/h 69.4% 0 mm 267 W/m2
13:49 30.3 °C 23.7 °C 1015.5 hPa WNW 5.8 km/h 17.7 km/h 68% 0 mm 316 W/m2
13:54 30.2 °C 23.5 °C 1015.5 hPa West 3.9 km/h 17.7 km/h 67.5% 0 mm 380 W/m2
13:59 30.2 °C 23.6 °C 1015.5 hPa West 2.1 km/h 17.7 km/h 67.8% 0 mm 522 W/m2
14:04 30.3 °C 23.9 °C 1015.5 hPa WNW 1.6 km/h 17.7 km/h 68.8% 0 mm 464 W/m2
14:09 30.4 °C 23.9 °C 1015.5 hPa West 4 km/h 9.7 km/h 68.2% 0 mm 306 W/m2
14:14 30.6 °C 23.8 °C 1015.5 hPa WNW 2.6 km/h 9.7 km/h 67.1% 0 mm 276 W/m2
14:19 30.6 °C 23.8 °C 1015.5 hPa WNW 2.7 km/h 9.7 km/h 67.1% 0 mm 264 W/m2
14:24 30.6 °C 24 °C 1015.5 hPa WNW 1.4 km/h 9.7 km/h 68% 0 mm 601 W/m2
14:29 30.8 °C 24.2 °C 1015.5 hPa WNW 1.3 km/h 9.7 km/h 68% 0 mm 991 W/m2
14:34 31.2 °C 24.3 °C 1015.5 hPa WSW 4 km/h 11.3 km/h 67% 0 mm 984 W/m2
14:39 31.5 °C 23.6 °C 1015.1 hPa WSW 5.6 km/h 11.3 km/h 62.9% 0 mm 946 W/m2
14:44 31.5 °C 23.4 °C 1015.1 hPa West 4 km/h 11.3 km/h 62.2% 0 mm 262 W/m2
14:49 31.3 °C 23.3 °C 1015.1 hPa WNW 1.8 km/h 11.3 km/h 62.5% 0 mm 244 W/m2
14:54 31.2 °C 23.8 °C 1015.1 hPa West 2.6 km/h 11.3 km/h 65% 0 mm 214 W/m2
14:59 31.1 °C 23.7 °C 1015.1 hPa West 0.6 km/h 11.3 km/h 64.8% 0 mm 200 W/m2
15:04 30.9 °C 23.6 °C 1015.1 hPa West 2.3 km/h 11.3 km/h 65% 0 mm 197 W/m2
15:09 30.8 °C 23.6 °C 1015.1 hPa West 0.2 km/h 6.4 km/h 65.5% 0 mm 290 W/m2
15:14 30.8 °C 23.9 °C 1015.1 hPa Calm   6.4 km/h 66.5% 0 mm 367 W/m2
15:19 30.9 °C 24.3 °C 1015.1 hPa West 1.1 km/h 6.4 km/h 67.8% 0 mm 353 W/m2
15:24 31 °C 24.1 °C 1015.1 hPa West 0.5 km/h 6.4 km/h 66.6% 0 mm 858 W/m2
15:29 31.2 °C 23.8 °C 1015.1 hPa West 0.3 km/h 6.4 km/h 64.9% 0 mm 802 W/m2
15:34 31.5 °C 23.8 °C 1015.1 hPa West 2.3 km/h 8 km/h 63.7% 0 mm 726 W/m2
15:39 31.7 °C 23.7 °C 1015.1 hPa WSW 3.9 km/h 11.3 km/h 62.6% 0 mm 737 W/m2
15:44 31.9 °C 23.6 °C 1014.8 hPa WSW 1.1 km/h 11.3 km/h 61.4% 0 mm 737 W/m2
15:49 31.8 °C 23.4 °C 1014.8 hPa WSW 0.3 km/h 11.3 km/h 60.9% 0 mm 105 W/m2
15:54 31.7 °C 23.7 °C 1014.8 hPa West 4 km/h 11.3 km/h 62.8% 0 mm 105 W/m2
15:59 31.4 °C 23.5 °C 1014.8 hPa West 1.3 km/h 11.3 km/h 62.8% 0 mm 97 W/m2
16:09 30.9 °C 23.7 °C 1014.8 hPa West 1.9 km/h 9.7 km/h 65.5% 0 mm 116 W/m2
16:14 30.7 °C 23.6 °C 1014.8 hPa West 1.3 km/h 9.7 km/h 65.9% 0 mm 116 W/m2
16:19 30.6 °C 23.7 °C 1014.8 hPa WNW 2.6 km/h 9.7 km/h 66.7% 0 mm 102 W/m2
16:24 30.4 °C 23.4 °C 1015.1 hPa WNW 5.6 km/h 14.5 km/h 66.2% 0 mm 90 W/m2
16:29 30.1 °C 23.2 °C 1015.1 hPa NW 2.4 km/h 14.5 km/h 66.7% 0 mm 130 W/m2
16:34 29.9 °C 23.4 °C 1015.1 hPa WNW 4.5 km/h 14.5 km/h 68.1% 0 mm 130 W/m2
16:39 29.8 °C 23.2 °C 1015.1 hPa WNW 2.4 km/h 11.3 km/h 68.1% 0 mm 142 W/m2
16:44 29.7 °C 23.4 °C 1015.1 hPa NW 2.3 km/h 11.3 km/h 69% 0 mm 172 W/m2
16:49 29.8 °C 23.4 °C 1015.1 hPa NW 5.6 km/h 14.5 km/h 69% 0 mm 167 W/m2
16:54 29.9 °C 23.3 °C 1015.1 hPa WNW 6.3 km/h 20.9 km/h 67.6% 0 mm 139 W/m2
16:59 30.1 °C 22.8 °C 1015.1 hPa NW 7.9 km/h 20.9 km/h 65.2% 0 mm 105 W/m2
17:04 29.9 °C 22.7 °C 1015.1 hPa WNW 6.3 km/h 20.9 km/h 65.1% 0 mm 127 W/m2
17:09 29.8 °C 22.6 °C 1015.1 hPa NW 5.8 km/h 16.1 km/h 65.4% 0 mm 137 W/m2
17:14 29.6 °C 22.6 °C 1015.1 hPa NW 2.7 km/h 16.1 km/h 65.9% 0 mm 144 W/m2
17:19 29.6 °C 22.4 °C 1015.5 hPa NW 4.5 km/h 16.1 km/h 65.2% 0 mm 95 W/m2
17:24 29.7 °C 22.2 °C 1015.5 hPa WNW 4.5 km/h 16.1 km/h 64.3% 0 mm 47 W/m2
17:29 29.7 °C 22.3 °C 1015.1 hPa NW 4.7 km/h 19.3 km/h 64.5% 0 mm 40 W/m2
17:34 29.7 °C 21.8 °C 1015.1 hPa WNW 7.6 km/h 19.3 km/h 62.8% 0 mm 39 W/m2
17:39 29.7 °C 21.6 °C 1015.1 hPa NW 5 km/h 16.1 km/h 62% 0 mm 39 W/m2
17:44 29.6 °C 21.6 °C 1015.5 hPa NW 5.5 km/h 24.1 km/h 61.9% 0 mm 39 W/m2
17:49 29.6 °C 21.1 °C 1015.5 hPa NNW 5.5 km/h 24.1 km/h 60.4% 0 mm 37 W/m2
17:54 29.4 °C 19.9 °C 1015.5 hPa NW 9.2 km/h 24.1 km/h 56.7% 0 mm 37 W/m2
17:59 29.1 °C 19.3 °C 1015.5 hPa NW 7.4 km/h 24.1 km/h 55.7% 0 mm 37 W/m2
18:04 28.9 °C 19.1 °C 1015.5 hPa NW 7.4 km/h 24.1 km/h 55.3% 0 mm 32 W/m2
18:09 28.7 °C 18.4 °C 1015.8 hPa NW 7.1 km/h 17.7 km/h 53.9% 0 mm 32 W/m2
18:14 28.5 °C 17.6 °C 1015.8 hPa NW 7.7 km/h 17.7 km/h 51.7% 0 mm 30 W/m2
18:19 28.3 °C 17.1 °C 1015.8 hPa NW 8 km/h 17.7 km/h 50.6% 0 mm 30 W/m2
18:24 28.1 °C 16.7 °C 1015.8 hPa NW 8 km/h 27.4 km/h 50.1% 0 mm 28 W/m2
18:29 27.8 °C 16.4 °C 1015.8 hPa NW 4.8 km/h 27.4 km/h 49.7% 0 mm 26 W/m2
18:34 27.7 °C 16.3 °C 1015.8 hPa NW 3.7 km/h 27.4 km/h 50% 0 mm 26 W/m2
18:39 27.6 °C 16.4 °C 1015.8 hPa WNW 3.5 km/h 14.5 km/h 50.5% 0 mm 25 W/m2
18:44 27.4 °C 16.2 °C 1016.1 hPa NW 4.8 km/h 14.5 km/h 50.4% 0 mm 23 W/m2
18:49 27.3 °C 16.1 °C 1016.1 hPa NW 5.8 km/h 14.5 km/h 50.3% 0 mm 23 W/m2
18:54 27.2 °C 15.6 °C 1016.1 hPa WNW 6.6 km/h 17.7 km/h 49% 0 mm 21 W/m2
18:59 27 °C 14.8 °C 1016.1 hPa WNW 7.1 km/h 17.7 km/h 47.2% 0 mm 19 W/m2
19:04 26.9 °C 14.5 °C 1016.1 hPa NW 5.8 km/h 17.7 km/h 46.7% 0 mm 19 W/m2
19:09 26.7 °C 14.5 °C 1016.1 hPa WNW 6.1 km/h 16.1 km/h 47% 0 mm 18 W/m2
19:14 26.6 °C 14.7 °C 1016.1 hPa WNW 5.3 km/h 16.1 km/h 47.8% 0 mm 16 W/m2
19:19 26.5 °C 14.9 °C 1016.1 hPa WNW 2.6 km/h 16.1 km/h 49% 0 mm 14 W/m2
19:24 26.3 °C 15.3 °C 1016.5 hPa NW 2.4 km/h 16.1 km/h 50.7% 0 mm 12 W/m2
19:29 26.2 °C 14.9 °C 1016.5 hPa NW 2.6 km/h 16.1 km/h 50% 0 mm 11 W/m2
19:34 26 °C 14.8 °C 1016.5 hPa NW 2.6 km/h 16.1 km/h 50% 0 mm 9 W/m2
19:39 25.9 °C 14.9 °C 1016.5 hPa NW 4 km/h 16.1 km/h 51% 0 mm 7 W/m2
19:44 25.7 °C 14.8 °C 1016.8 hPa NNW 1.8 km/h 16.1 km/h 51% 0 mm 0 W/m2
19:49 25.5 °C 14.9 °C 1016.8 hPa NW 1.9 km/h 16.1 km/h 51.8% 0 mm 0 W/m2
19:54 25.3 °C 14.8 °C 1016.8 hPa NW 1.6 km/h 16.1 km/h 52% 0 mm 0 W/m2
19:59 25.2 °C 14.9 °C 1016.8 hPa NW 1.4 km/h 16.1 km/h 52.8% 0 mm 0 W/m2
20:00 25.1 °C 14.9 °C 1016.8 hPa Calm   16.1 km/h 53% 0 mm 0 W/m2
20:09 24.9 °C 14.8 °C 1017.2 hPa NW 1 km/h 4.8 km/h 53.4% 0 mm 0 W/m2
20:14 24.8 °C 14.8 °C 1017.2 hPa NW 0.6 km/h 4.8 km/h 54% 0 mm 0 W/m2
20:19 24.7 °C 14.8 °C 1017.2 hPa Calm   4.8 km/h 54.2% 0 mm 0 W/m2
20:24 24.6 °C 14.9 °C 1017.2 hPa Calm   4.8 km/h 55% 0 mm 0 W/m2
20:29 24.4 °C 14.8 °C 1017.5 hPa Calm   4.8 km/h 55% 0 mm 0 W/m2
20:34 24.3 °C 14.9 °C 1017.5 hPa Calm   4.8 km/h 55.7% 0 mm 0 W/m2
20:39 24.2 °C 14.9 °C 1017.5 hPa Calm     56% 0 mm 0 W/m2
20:44 24.2 °C 15.1 °C 1017.5 hPa Calm     57% 0 mm 0 W/m2
20:49 24.1 °C 15.3 °C 1017.8 hPa NW 0.2 km/h 1.6 km/h 58.2% 0 mm 0 W/m2
20:54 24 °C 15.5 °C 1017.8 hPa Calm   1.6 km/h 59% 0 mm 0 W/m2
20:59 23.9 °C 15.6 °C 1018.2 hPa Calm   1.6 km/h 59.5% 0 mm 0 W/m2
21:04 23.8 °C 15.6 °C 1018.2 hPa Calm   1.6 km/h 60% 0 mm 0 W/m2
21:09 23.8 °C 15.7 °C 1018.2 hPa Calm     60.5% 0 mm 0 W/m2
21:14 23.7 °C 15.7 °C 1018.2 hPa Calm     61% 0 mm 0 W/m2
21:19 23.6 °C 15.8 °C 1018.5 hPa Calm     61.7% 0 mm 0 W/m2
21:24 23.6 °C 15.9 °C 1018.5 hPa Calm     62% 0 mm 0 W/m2
21:29 23.5 °C 16 °C 1018.5 hPa Calm     62.8% 0 mm 0 W/m2
21:34 23.4 °C 16.1 °C 1018.5 hPa NW 0.3 km/h 4.8 km/h 63.4% 0 mm 0 W/m2
21:39 23.4 °C 16.3 °C 1018.5 hPa Calm   4.8 km/h 64.3% 0 mm 0 W/m2
21:44 23.3 °C 16.4 °C 1018.5 hPa Calm   4.8 km/h 65% 0 mm 0 W/m2
21:49 23.3 °C 16.4 °C 1018.5 hPa NW 0.2 km/h 4.8 km/h 65.4% 0 mm 0 W/m2
21:54 23.3 °C 16.6 °C 1018.5 hPa NW 0.3 km/h 4.8 km/h 66% 0 mm 0 W/m2
21:59 23.2 °C 16.5 °C 1018.5 hPa NW 0.2 km/h 4.8 km/h 66% 0 mm 0 W/m2
22:04 23.2 °C 16.4 °C 1018.5 hPa Calm   4.8 km/h 66% 0 mm 0 W/m2
22:09 23.1 °C 16.5 °C 1018.8 hPa NW 0.8 km/h 6.4 km/h 66.3% 0 mm 0 W/m2
22:14 23.1 °C 16.4 °C 1018.8 hPa Calm   6.4 km/h 66.2% 0 mm 0 W/m2
22:19 23 °C 16.3 °C 1018.8 hPa NW 0.3 km/h 6.4 km/h 66% 0 mm 0 W/m2
22:24 22.9 °C 16.3 °C 1018.8 hPa NW 0.3 km/h 8 km/h 66.2% 0 mm 0 W/m2
22:29 22.9 °C 16.3 °C 1018.8 hPa Calm   8 km/h 66% 0 mm 0 W/m2
22:34 22.9 °C 16.3 °C 1018.8 hPa NW 0.6 km/h 8 km/h 66.3% 0 mm 0 W/m2
22:39 22.8 °C 16.2 °C 1018.8 hPa NW 0.3 km/h 6.4 km/h 66.4% 0 mm 0 W/m2
22:44 22.8 °C 16.1 °C 1018.8 hPa NW 0.3 km/h 6.4 km/h 66% 0 mm 0 W/m2
22:49 22.7 °C 16.1 °C 1018.8 hPa NW 0.8 km/h 6.4 km/h 66.1% 0 mm 0 W/m2
22:54 22.7 °C 16.1 °C 1018.8 hPa NW 0.2 km/h 6.4 km/h 66.1% 0 mm 0 W/m2
22:59 22.6 °C 15.9 °C 1019.2 hPa NW 1.1 km/h 6.4 km/h 65.7% 0 mm 0 W/m2
23:04 22.6 °C 15.7 °C 1019.2 hPa NW 0.2 km/h 6.4 km/h 65% 0 mm 0 W/m2
23:09 22.5 °C 15.4 °C 1019.2 hPa NW 2.7 km/h 8 km/h 64.3% 0 mm 0 W/m2
23:14 22.5 °C 15.3 °C 1019.2 hPa NW 1.4 km/h 9.7 km/h 64% 0 mm 0 W/m2
23:19 22.4 °C 15.1 °C 1019.2 hPa NW 2.6 km/h 12.9 km/h 63.2% 0 mm 0 W/m2
23:24 22.4 °C 15.1 °C 1019.2 hPa NW 1.3 km/h 12.9 km/h 63% 0 mm 0 W/m2
23:29 22.4 °C 15 °C 1019.2 hPa NW 1.1 km/h 12.9 km/h 62.8% 0 mm 0 W/m2
23:34 22.4 °C 14.8 °C 1019.2 hPa NW 0.5 km/h 12.9 km/h 62% 0 mm 0 W/m2
23:39 22.4 °C 14.8 °C 1019.2 hPa NW 1.1 km/h 9.7 km/h 62% 0 mm 0 W/m2
23:44 22.4 °C 14.8 °C 1019.2 hPa NW 1.1 km/h 9.7 km/h 61.8% 0 mm 0 W/m2
23:49 22.4 °C 14.5 °C 1019.2 hPa NW 1.6 km/h 9.7 km/h 61% 0 mm 0 W/m2
23:54 22.4 °C 14.6 °C 1019.5 hPa NW 0.6 km/h 9.7 km/h 61.4% 0 mm 0 W/m2
23:59 22.3 °C 14.6 °C 1019.2 hPa NW 0.8 km/h 9.7 km/h 61.3% 0 mm 0 W/m2
Hartford County Weather
Compliments of Weather Underground - 2 mb